Time;durP1;ratioP1;P1;durP2;ratioP2;P2;SDS_P1;SDS_P2;PMS_P1;PMS_P2;Temp;Humidity;BMP_temperature;BMP_pressure;BME280_temperature;BME280_humidity;BME280_pressure;Samples;Min_cycle;Max_cycle;Signal;HPM_P1;HPM_P2
2021/10/04 07:59:16;;;;;;;;;2.00;2.00;;;;;13.28;66.04;101294.84;6314055;22;46906;-91
2021/10/04 08:39:26;;;;;;;;;2.00;1.00;;;;;14.25;64.96;101294.97;6366660;22;45458;-86
2021/10/04 08:41:53;;;;;;;;;1.00;1.00;;;;;14.23;64.66;101280.84;6341420;22;46060;-86
2021/10/04 08:44:19;;;;;;;;;1.00;1.00;;;;;14.26;64.38;101267.56;6371298;22;45451;-86
2021/10/04 08:46:46;;;;;;;;;2.00;2.00;;;;;14.41;65.02;101283.31;6372068;22;45652;-86
2021/10/04 08:49:16;;;;;;;;;1.33;1.00;;;;;14.59;64.45;101302.56;6341472;22;45301;-88
2021/10/04 08:51:50;;;;;;;;;2.33;1.00;;;;;14.53;64.97;101280.53;6343179;22;45635;-87
2021/10/04 08:54:31;;;;;;;;;;;;;;;;;;;;;
2021/10/04 08:57:03;;;;;;;;;2.33;2.33;;;;;14.82;64.33;101286.41;6370434;22;73311;-86
2021/10/04 08:59:28;;;;;;;;;1.00;1.00;;;;;14.84;64.33;101272.25;6371438;22;45337;-86
2021/10/04 09:02:22;;;;;;;;;1.00;1.00;;;;;15.11;64.49;101291.34;6370788;22;45599;-86
2021/10/04 09:05:20;;;;;;;;;4.00;3.00;;;;;15.21;63.81;101285.88;6343765;22;46016;-86
2021/10/04 09:08:02;;;;;;;;;1.00;1.00;;;;;15.20;63.96;101272.63;6370585;22;45297;-86
2021/10/04 09:10:32;;;;;;;;;5.00;1.00;;;;;15.32;63.72;101280.41;6341314;22;45734;-85
2021/10/04 09:13:41;;;;;;;;;;;;;;;;;;;;;
2021/10/04 09:16:12;;;;;;;;;3.33;1.67;;;;;15.57;63.40;101299.50;6365878;22;46739;-87
2021/10/04 09:19:25;;;;;;;;;;;;;;;;;;;;;
2021/10/04 09:22:21;;;;;;;;;2.00;2.00;;;;;15.68;63.17;101267.47;6370431;22;69923;-85
2021/10/04 09:24:58;;;;;;;;;2.67;2.00;;;;;15.88;62.91;101294.59;6367733;22;45652;-86
2021/10/04 09:27:44;;;;;;;;;;;;;;;;;;;;;
2021/10/04 09:30:51;;;;;;;;;;;;;;;;;;;;;
2021/10/04 09:33:26;;;;;;;;;0.33;0.00;;;;;16.05;62.94;101270.41;6372241;22;68923;-88
2021/10/04 09:35:51;;;;;;;;;1.00;1.00;;;;;16.14;62.62;101274.66;6344646;22;45463;-88
2021/10/04 09:38:17;;;;;;;;;1.67;1.67;;;;;16.18;62.45;101263.09;6372553;22;45395;-84
2021/10/04 09:40:54;;;;;;;;;3.00;3.00;;;;;16.26;62.45;101257.63;6343843;22;45488;-89
2021/10/04 09:43:30;;;;;;;;;0.67;0.67;;;;;16.45;62.35;101272.31;6343401;22;45335;-85
2021/10/04 09:46:10;;;;;;;;;1.00;1.00;;;;;16.50;62.24;101269.56;6372929;22;45217;-87
2021/10/04 09:48:36;;;;;;;;;2.00;0.00;;;;;16.58;61.90;101266.75;6342852;22;47182;-85
2021/10/04 09:51:17;;;;;;;;;1.00;1.00;;;;;16.73;61.79;101275.31;6343236;22;45833;-84
2021/10/04 09:54:09;;;;;;;;;0.33;0.33;;;;;16.88;61.42;101273.25;6343759;22;45379;-86
2021/10/04 09:56:34;;;;;;;;;3.00;1.00;;;;;16.84;61.25;101251.19;6343069;22;46004;-84
2021/10/04 09:59:00;;;;;;;;;1.67;1.67;;;;;16.93;61.18;101250.09;6371889;22;45886;-85
2021/10/04 10:01:26;;;;;;;;;2.67;2.00;;;;;17.13;61.14;101278.91;6371834;22;45334;-86
2021/10/04 10:04:19;;;;;;;;;1.00;1.00;;;;;17.26;61.01;101271.53;6370617;22;45290;-86
2021/10/04 10:06:40;;;;;;;;;5.00;4.00;;;;;17.30;60.99;101255.47;6367650;22;45569;-85
2021/10/04 10:09:05;;;;;;;;;1.00;1.00;;;;;17.39;60.38;101263.22;6342980;22;46269;-84
2021/10/04 10:11:43;;;;;;;;;;;;;;;;;;;;;
2021/10/04 10:14:09;;;;;;;;;2.00;1.67;;;;;17.60;60.06;101263.63;6371111;22;68961;-86
2021/10/04 10:16:49;;;;;;;;;;;;;;;;;;;;;
2021/10/04 10:19:30;;;;;;;;;1.33;1.33;;;;;17.95;59.00;101275.22;6371966;22;75364;-87
2021/10/04 10:22:29;;;;;;;;;;;;;;;;;;;;;
2021/10/04 10:29:33;;;;;;;;;;;;;;;;;;;;;
2021/10/04 10:32:29;;;;;;;;;1.00;1.00;;;;;18.57;57.50;101272.63;6208751;22;74405;-84
2021/10/04 10:35:47;;;;;;;;;4.33;2.00;;;;;18.72;57.37;101260.66;6181704;22;45736;-90
2021/10/04 10:38:13;;;;;;;;;1.33;1.33;;;;;19.03;56.90;101270.44;6193533;22;45486;-85
2021/10/04 10:41:17;;;;;;;;;2.00;1.00;;;;;19.21;56.28;101272.53;6212561;22;45797;-90
2021/10/04 10:47:11;;;;;;;;;1.00;0.00;;;;;19.35;55.40;101272.09;6206409;22;45356;-87
2021/10/04 10:50:28;;;;;;;;;;;;;;;;;;;;;
2021/10/04 10:53:36;;;;;;;;;2.00;2.00;;;;;19.51;55.09;101270.72;6213807;22;71397;-90
2021/10/04 11:28:37;;;;;;;;;;;;;;;;;;;;;
2021/10/04 11:31:45;;;;;;;;;;;;;;;;;;;;;
2021/10/04 11:49:24;;;;;;;;;;;;;;;;;;;;;
2021/10/04 11:58:37;;;;;;;;;0.00;0.00;;;;;21.30;49.05;101222.31;6028620;23;45355;-86
2021/10/04 12:04:25;;;;;;;;;0.33;0.00;;;;;21.70;48.01;101210.00;6029024;23;46649;-85
2021/10/04 12:06:51;;;;;;;;;0.00;0.00;;;;;21.84;48.63;101212.97;6125825;23;45337;-83
2021/10/04 12:09:21;;;;;;;;;0.67;0.00;;;;;22.05;47.55;101211.13;6211554;22;45501;-83
2021/10/04 12:12:05;;;;;;;;;0.00;0.00;;;;;22.15;47.21;101216.97;6246904;22;45438;-85
2021/10/04 12:15:19;;;;;;;;;0.67;0.33;;;;;22.28;47.89;101198.56;6246866;22;46976;-82
2021/10/04 12:17:45;;;;;;;;;1.00;1.00;;;;;22.32;47.33;101202.81;6245408;22;45249;-82
2021/10/04 12:20:32;;;;;;;;;;;;;;;;;;;;;
2021/10/04 12:23:22;;;;;;;;;0.33;0.00;;;;;22.61;45.58;101199.69;6368262;22;73455;-83
2021/10/04 12:25:55;;;;;;;;;0.67;0.67;;;;;22.80;44.11;101198.81;6368838;22;46540;-82
2021/10/04 12:28:39;;;;;;;;;;;;;;;;;;;;;
2021/10/04 12:32:22;;;;;;;;;0.00;0.00;;;;;23.20;43.62;101194.22;6369124;22;68777;-82
2021/10/04 12:34:39;;;;;;;;;0.00;0.00;;;;;23.24;43.09;101194.00;6362527;22;45433;-85
2021/10/04 12:37:05;;;;;;;;;0.00;0.00;;;;;23.06;43.25;101201.16;6341371;22;47791;-84
2021/10/04 12:39:39;;;;;;;;;0.67;0.00;;;;;22.98;43.30;101191.72;6334759;22;45333;-82
2021/10/04 12:42:04;;;;;;;;;0.67;0.00;;;;;23.23;44.37;101183.31;6359999;22;45385;-82
2021/10/04 12:44:38;;;;;;;;;2.00;0.33;;;;;25.08;43.77;101188.78;6339199;22;45716;-85
2021/10/04 12:47:13;;;;;;;;;1.00;1.00;;;;;25.55;40.73;101174.34;6336791;22;47740;-82
2021/10/04 12:49:59;;;;;;;;;1.67;0.00;;;;;24.87;40.82;101189.03;6362491;22;45399;-84
2021/10/04 12:56:51;;;;;;;;;1.00;0.00;;;;;23.32;42.06;101170.31;6178220;22;45374;-86
2021/10/04 12:59:33;;;;;;;;;0.00;0.00;;;;;23.51;42.14;101174.75;6255249;22;45604;-83
2021/10/04 13:02:06;;;;;;;;;0.67;0.00;;;;;25.16;42.63;101161.41;6336580;22;45188;-84
2021/10/04 13:08:09;;;;;;;;;1.00;1.00;;;;;27.78;35.78;101155.56;6338842;22;45537;-84
2021/10/04 13:11:59;;;;;;;;;;;;;;;;;;;;;
2021/10/04 13:14:23;;;;;;;;;0.00;0.00;;;;;27.59;35.22;101165.94;6305124;22;45260;-82
2021/10/04 13:20:19;;;;;;;;;0.00;0.00;;;;;25.79;36.32;101166.63;6189615;22;45412;-83
2021/10/04 13:22:44;;;;;;;;;0.00;0.00;;;;;25.21;37.18;101157.50;6327636;22;46134;-82
2021/10/04 13:25:15;;;;;;;;;0.00;0.00;;;;;25.44;37.97;101161.50;6338970;22;45351;-82
2021/10/04 13:27:43;;;;;;;;;0.00;0.00;;;;;25.84;37.01;101148.34;6339690;22;45499;-85
2021/10/04 13:30:42;;;;;;;;;1.00;0.00;;;;;25.90;36.92;101155.19;6339836;22;45387;-84
2021/10/04 13:33:26;;;;;;;;;0.33;0.00;;;;;25.94;37.06;101144.13;6337634;22;45505;-85
2021/10/04 13:35:53;;;;;;;;;2.00;1.00;;;;;26.32;35.85;101140.84;6337452;22;45377;-83
2021/10/04 13:38:47;;;;;;;;;;;;;;;;;;;;;
2021/10/04 13:41:17;;;;;;;;;0.00;0.00;;;;;26.01;36.38;101147.34;6341181;22;71764;-84
2021/10/04 13:43:52;;;;;;;;;1.00;1.00;;;;;25.77;36.04;101149.69;6341626;22;46762;-83
2021/10/04 13:46:22;;;;;;;;;0.00;0.00;;;;;25.40;36.89;101142.94;6380361;22;45800;-83
2021/10/04 13:49:17;;;;;;;;;0.00;0.00;;;;;25.15;37.54;101148.84;6325218;22;45768;-84
2021/10/04 13:55:18;;;;;;;;;0.00;0.00;;;;;24.67;38.11;101126.47;6173302;22;45249;-82
2021/10/04 13:57:43;;;;;;;;;1.00;0.00;;;;;24.71;37.99;101138.81;6321548;22;45379;-85
2021/10/04 14:00:15;;;;;;;;;1.67;0.67;;;;;24.94;38.18;101119.53;6352823;22;45184;-83
2021/10/04 14:02:41;;;;;;;;;0.00;0.00;;;;;25.69;37.97;101127.69;6361768;22;44687;-81
2021/10/04 14:05:12;;;;;;;;;0.00;0.00;;;;;26.30;36.81;101129.31;6333223;22;46921;-82
2021/10/04 14:07:40;;;;;;;;;0.33;0.33;;;;;26.74;35.83;101133.69;6317635;22;45172;-84
2021/10/04 14:10:07;;;;;;;;;1.33;1.00;;;;;26.56;35.70;101126.78;6341264;22;45400;-83
2021/10/04 14:12:33;;;;;;;;;1.00;0.00;;;;;26.99;36.10;101130.22;6308897;22;46332;-83
2021/10/04 14:15:00;;;;;;;;;0.00;0.00;;;;;27.09;35.18;101122.38;6311036;22;47721;-82
2021/10/04 14:17:26;;;;;;;;;0.00;0.00;;;;;26.53;34.56;101119.75;6312579;22;45291;-88
2021/10/04 14:19:52;;;;;;;;;0.33;0.33;;;;;25.76;34.66;101126.34;6310827;22;45253;-84
2021/10/04 14:22:17;;;;;;;;;0.33;0.00;;;;;25.08;36.07;101124.97;6339988;22;45438;-84
2021/10/04 14:28:23;;;;;;;;;0.00;0.00;;;;;24.00;37.68;101126.50;6341527;22;45409;-87
2021/10/04 14:31:07;;;;;;;;;0.33;0.00;;;;;23.77;38.56;101133.13;6341356;22;45396;-86
2021/10/04 14:33:34;;;;;;;;;0.00;0.00;;;;;24.36;38.28;101115.56;6317473;22;45350;-79
2021/10/04 14:36:08;;;;;;;;;1.00;0.00;;;;;24.85;36.83;101117.34;6353927;22;45373;-83
2021/10/04 14:56:32;;;;;;;;;0.00;0.00;;;;;24.97;38.20;101096.94;6290960;22;45248;-83
2021/10/04 14:59:01;;;;;;;;;0.00;0.00;;;;;26.08;36.81;101113.59;6266018;22;45214;-79
2021/10/04 15:01:36;;;;;;;;;0.00;0.00;;;;;26.69;34.66;101107.94;6334534;22;45411;-85
2021/10/04 15:04:05;;;;;;;;;1.00;1.00;;;;;26.03;34.80;101102.22;6310901;22;45711;-83
2021/10/04 15:06:34;;;;;;;;;1.00;0.00;;;;;25.29;35.52;101101.31;6311158;22;45330;-88
2021/10/04 15:09:21;;;;;;;;;;;;;;;;;;;;;
2021/10/04 15:12:06;;;;;;;;;0.00;0.00;;;;;23.90;37.10;101098.41;6320431;22;45462;-89
2021/10/04 15:37:33;;;;;;;;;0.00;0.00;;;;;27.91;32.77;101096.09;6354330;22;45275;-88
2021/10/04 15:59:31;;;;;;;;;;;;;;;;;;;;;
2021/10/04 16:17:36;;;;;;;;;0.00;0.00;;;;;26.82;31.49;101071.91;6181216;23;45278;-89
2021/10/04 16:41:11;;;;;;;;;0.33;0.33;;;;;22.30;38.90;101068.78;6152274;23;45627;-85
2021/10/04 16:43:39;;;;;;;;;1.00;1.00;;;;;22.05;39.30;101065.47;6146996;22;45379;-85
2021/10/04 16:46:08;;;;;;;;;0.00;0.00;;;;;21.84;40.29;101067.31;6329603;22;45465;-83
2021/10/04 20:31:28;;;;;;;;;;;;;;;;;;;;;
2021/10/04 22:04:58;;;;;;;;;;;;;;;;;;;;;
2021/10/04 22:07:48;;;;;;;;;0.00;0.00;;;;;16.85;59.82;100869.97;6301825;22;45308;-81
2021/10/04 22:14:02;;;;;;;;;;;;;;;;;;;;;
2021/10/04 22:16:48;;;;;;;;;2.00;1.67;;;;;16.78;60.20;100870.19;6152317;22;73820;-83
2021/10/04 22:19:16;;;;;;;;;0.33;0.00;;;;;16.84;59.94;100889.53;6277352;22;45577;-83
2021/10/04 22:22:43;;;;;;;;;;;;;;;;;;;;;
2021/10/04 22:36:09;;;;;;;;;;;;;;;;;;;;;
2021/10/04 22:41:46;;;;;;;;;1.33;1.33;;;;;16.69;61.04;100858.84;6165423;22;46237;-83
2021/10/04 22:44:19;;;;;;;;;2.00;2.00;;;;;16.57;61.10;100832.59;6184744;22;45757;-83
2021/10/04 22:46:46;;;;;;;;;1.00;1.00;;;;;16.66;61.14;100858.94;6271914;22;45306;-82
2021/10/04 22:52:48;;;;;;;;;0.00;0.00;;;;;16.47;61.15;100828.47;6245546;22;45526;-82
2021/10/04 22:55:17;;;;;;;;;2.00;2.00;;;;;16.45;61.33;100828.50;6278118;22;45479;-82
2021/10/04 22:57:42;;;;;;;;;2.00;1.00;;;;;16.52;61.21;100842.50;6278899;22;45514;-82
2021/10/04 23:00:19;;;;;;;;;1.00;0.00;;;;;16.56;61.63;100846.81;6278444;22;45581;-84
2021/10/04 23:03:18;;;;;;;;;;;;;;;;;;;;;
2021/10/04 23:13:15;;;;;;;;;;;;;;;;;;;;;
2021/10/04 23:20:18;;;;;;;;;;;;;;;;;;;;;
2021/10/04 23:23:20;;;;;;;;;;;;;;;;;;;;;
2021/10/04 23:26:22;;;;;;;;;;;;;;;;;;;;;
2021/10/04 23:29:37;;;;;;;;;3.00;3.00;;;;;16.29;62.68;100813.88;5867644;24;77047;-83
2021/10/04 23:32:53;;;;;;;;;;;;;;;;;;;;;
2021/10/04 23:35:30;;;;;;;;;1.00;0.00;;;;;16.21;63.06;100819.38;5881834;24;67512;-84
2021/10/04 23:38:05;;;;;;;;;1.00;1.00;;;;;16.19;63.23;100813.22;5874337;23;45370;-84
2021/10/04 23:40:33;;;;;;;;;0.00;0.00;;;;;16.11;63.39;100796.63;5975235;23;47169;-83
2021/10/04 23:42:58;;;;;;;;;0.33;0.33;;;;;16.15;63.06;100800.94;6169970;22;45450;-84
2021/10/04 23:45:51;;;;;;;;;;;;;;;;;;;;;
2021/10/04 23:48:28;;;;;;;;;0.00;0.00;;;;;15.99;63.19;100773.91;6308713;22;73978;-84
2021/10/04 23:55:08;;;;;;;;;1.00;1.00;;;;;15.96;63.65;100759.81;6310964;22;45406;-85
2021/10/04 23:57:37;;;;;;;;;2.00;1.00;;;;;16.07;63.53;100779.91;6253692;22;45587;-85
